createdAt,value
2018-02-04T00:01:54.680Z,13.40
2018-02-04T00:04:22.213Z,13.30
2018-02-04T00:06:50.519Z,12.23
2018-02-04T00:09:18.023Z,10.47
2018-02-04T00:11:45.557Z,10.77
2018-02-04T00:14:13.071Z,11.70
2018-02-04T00:16:41.371Z,11.53
2018-02-04T00:19:08.874Z,11.30
2018-02-04T00:21:36.405Z,11.83
2018-02-04T00:24:03.906Z,10.43
2018-02-04T00:26:31.423Z,10.97
2018-02-04T00:28:58.923Z,10.83
2018-02-04T00:31:26.446Z,10.50
2018-02-04T00:33:54.597Z,11.17
2018-02-04T00:36:22.139Z,10.60
2018-02-04T00:38:50.414Z,11.47
2018-02-04T00:41:18.701Z,11.33
2018-02-04T00:43:46.987Z,11.97
2018-02-04T00:46:14.541Z,10.40
2018-02-04T00:48:42.097Z,12.73
2018-02-04T00:51:10.371Z,9.03
2018-02-04T00:53:38.663Z,10.90
2018-02-04T00:56:06.162Z,9.80
2018-02-04T00:58:33.683Z,9.63
2018-02-04T01:01:01.207Z,9.90
2018-02-04T01:03:28.736Z,11.33
2018-02-04T01:05:56.235Z,9.63
2018-02-04T01:08:24.543Z,11.57
2018-02-04T01:10:52.059Z,11.37
2018-02-04T01:13:19.583Z,11.27
2018-02-04T01:15:47.084Z,13.20
2018-02-04T01:18:14.604Z,11.83
2018-02-04T01:20:42.115Z,12.27
2018-02-04T01:23:10.418Z,11.93
2018-02-04T01:25:37.923Z,11.17
2018-02-04T01:28:05.427Z,10.73
2018-02-04T01:30:33.711Z,10.17
2018-02-04T01:33:01.237Z,11.50
2018-02-04T01:35:28.762Z,10.63
2018-02-04T01:37:56.267Z,11.40
2018-02-04T01:40:24.554Z,10.77
2018-02-04T01:42:52.819Z,10.10
2018-02-04T01:45:21.116Z,10.43
2018-02-04T01:48:00.490Z,11.53
2018-02-04T01:50:28.007Z,10.50
2018-02-04T01:52:56.279Z,10.23
2018-02-04T01:55:24.562Z,9.00
2018-02-04T01:57:52.849Z,11.77
2018-02-04T02:00:20.370Z,10.30
2018-02-04T02:02:47.882Z,9.97
2018-02-04T02:05:15.417Z,9.70
2018-02-04T02:07:43.696Z,9.97
2018-02-04T02:10:11.999Z,7.37
2018-02-04T02:12:39.511Z,8.13
2018-02-04T02:15:07.032Z,7.93
2018-02-04T02:17:34.539Z,8.53
2018-02-04T02:20:02.077Z,8.50
2018-02-04T02:22:29.587Z,8.53
2018-02-04T02:24:57.087Z,8.77
2018-02-04T02:27:24.603Z,9.00
2018-02-04T02:29:52.103Z,8.07
2018-02-04T02:32:19.617Z,9.13
2018-02-04T02:34:47.883Z,7.63
2018-02-04T02:37:16.163Z,8.10
2018-02-04T02:39:44.442Z,7.90
2018-02-04T02:42:12.731Z,7.93
2018-02-04T02:44:40.235Z,8.40
2018-02-04T02:47:07.756Z,7.73
2018-02-04T02:49:35.272Z,7.80
2018-02-04T02:52:02.792Z,7.93
2018-02-04T02:54:30.296Z,8.00
2018-02-04T02:56:57.819Z,7.40
2018-02-04T02:59:25.330Z,7.30
2018-02-04T03:01:53.616Z,7.87
2018-02-04T03:04:21.886Z,7.20
2018-02-04T03:06:50.193Z,7.63
2018-02-04T03:09:17.694Z,7.53
2018-02-04T03:11:45.194Z,7.40
2018-02-04T03:14:13.484Z,7.60
2018-02-04T03:16:41.001Z,7.60
2018-02-04T03:19:08.527Z,7.00
2018-02-04T03:21:36.028Z,6.23
2018-02-04T03:24:03.553Z,8.17
2018-02-04T03:26:31.059Z,8.30
2018-02-04T03:28:59.339Z,8.73
2018-02-04T03:31:27.607Z,8.80
2018-02-04T03:33:55.892Z,8.70
2018-02-04T03:36:24.157Z,8.60
2018-02-04T03:38:51.679Z,8.70
2018-02-04T03:41:19.175Z,9.23
2018-02-04T03:43:46.691Z,8.90
2018-02-04T03:46:14.201Z,8.40
2018-02-04T03:48:42.498Z,8.13
2018-02-04T03:51:09.998Z,8.63
2018-02-04T03:53:37.537Z,7.60
2018-02-04T03:56:05.038Z,7.57
2018-02-04T03:58:32.552Z,8.17
2018-02-04T04:01:00.064Z,8.37
2018-02-04T04:03:27.591Z,8.60
2018-02-04T04:05:55.106Z,8.03
2018-02-04T04:08:23.371Z,6.93
2018-02-04T04:10:51.665Z,7.83
2018-02-04T04:13:19.930Z,7.83
2018-02-04T04:15:48.214Z,8.97
2018-02-04T04:18:16.496Z,8.87
2018-02-04T04:20:44.774Z,7.43
2018-02-04T04:23:13.039Z,8.00
2018-02-04T04:25:41.337Z,7.30
2018-02-04T04:28:08.842Z,7.47
2018-02-04T04:30:36.355Z,7.80
2018-02-04T04:33:04.623Z,7.20
2018-02-04T04:35:32.928Z,7.83
2018-02-04T04:38:00.426Z,6.83
2018-02-04T04:40:27.952Z,7.40
2018-02-04T04:42:55.461Z,7.67
2018-02-04T04:45:22.982Z,7.67
2018-02-04T04:47:50.502Z,7.17
2018-02-04T04:50:18.793Z,7.20
2018-02-04T04:52:46.308Z,7.00
2018-02-04T04:55:13.812Z,8.43
2018-02-04T04:57:41.339Z,6.97
2018-02-04T05:00:08.845Z,6.77
2018-02-04T05:02:36.366Z,5.87
2018-02-04T05:05:04.631Z,7.57
2018-02-04T05:07:32.156Z,7.07
2018-02-04T05:09:59.667Z,8.03
2018-02-04T05:12:27.961Z,6.93
2018-02-04T05:14:55.459Z,7.67
2018-02-04T05:17:22.972Z,7.90
2018-02-04T05:19:51.235Z,6.60
2018-02-04T05:22:19.513Z,7.33
2018-02-04T05:24:47.779Z,6.63
2018-02-04T05:27:15.295Z,6.67
2018-02-04T05:29:42.800Z,5.97
2018-02-04T05:32:10.318Z,7.10
2018-02-04T05:34:37.819Z,5.67
2018-02-04T05:37:10.902Z,6.73
2018-02-04T05:39:38.410Z,5.67
2018-02-04T05:42:05.927Z,7.00
2018-02-04T05:44:34.208Z,6.23
2018-02-04T05:47:02.515Z,6.00
2018-02-04T05:49:30.028Z,5.70
2018-02-04T05:51:57.536Z,6.30
2018-02-04T05:54:25.050Z,6.13
2018-02-04T05:56:52.565Z,6.27
2018-02-04T05:59:20.083Z,5.63
2018-02-04T06:01:47.583Z,6.30
2018-02-04T06:04:15.107Z,6.37
2018-02-04T06:06:43.433Z,6.83
2018-02-04T06:09:11.684Z,6.00
2018-02-04T06:11:39.187Z,6.03
2018-02-04T06:14:06.704Z,7.90
2018-02-04T06:16:34.198Z,5.47
2018-02-04T06:19:01.736Z,4.90
2018-02-04T06:21:29.248Z,5.40
2018-02-04T06:23:56.766Z,5.87
2018-02-04T06:26:24.280Z,6.10
2018-02-04T06:28:52.560Z,5.83
2018-02-04T06:31:20.860Z,5.67
2018-02-04T06:33:48.371Z,6.37
2018-02-04T06:36:15.889Z,6.40
2018-02-04T06:38:43.399Z,6.27
2018-02-04T06:41:10.924Z,7.40
2018-02-04T06:43:38.487Z,5.53
2018-02-04T06:46:06.016Z,5.40
2018-02-04T06:48:33.532Z,5.63
2018-02-04T06:51:01.071Z,5.80
2018-02-04T06:53:28.591Z,5.50
2018-02-04T06:55:56.898Z,6.27
2018-02-04T06:58:24.443Z,5.37
2018-02-04T07:00:52.000Z,5.73
2018-02-04T07:03:19.565Z,6.87
2018-02-04T07:05:47.144Z,5.93
2018-02-04T07:08:14.693Z,5.40
2018-02-04T07:10:42.233Z,6.37
2018-02-04T07:13:09.819Z,5.53
2018-02-04T07:15:37.396Z,5.00
2018-02-04T07:18:04.927Z,5.70
2018-02-04T07:20:33.227Z,6.37
2018-02-04T07:23:00.778Z,5.00
2018-02-04T07:25:28.279Z,4.97
2018-02-04T07:27:55.809Z,5.60
2018-02-04T07:30:23.340Z,5.40
2018-02-04T07:32:51.667Z,5.90
2018-02-04T07:35:19.181Z,6.70
2018-02-04T07:37:47.487Z,5.83
2018-02-04T07:40:15.159Z,5.57
2018-02-04T07:42:42.678Z,7.07
2018-02-04T07:45:10.955Z,6.00
2018-02-04T07:47:39.275Z,7.80
2018-02-04T07:50:06.775Z,6.07
2018-02-04T07:52:34.288Z,6.03
2018-02-04T07:55:01.824Z,5.60
2018-02-04T07:57:30.117Z,7.17
2018-02-04T07:59:57.654Z,8.67
2018-02-04T08:02:25.924Z,6.20
2018-02-04T08:04:54.230Z,7.17
2018-02-04T08:07:21.763Z,6.40
2018-02-04T08:09:50.069Z,7.20
2018-02-04T08:12:17.580Z,6.37
2018-02-04T08:14:45.103Z,5.27
2018-02-04T08:17:12.627Z,5.83
2018-02-04T08:19:40.955Z,6.03
2018-02-04T08:22:08.468Z,5.47
2018-02-04T08:24:36.762Z,6.23
2018-02-04T08:27:04.342Z,6.90
2018-02-04T08:29:31.871Z,6.00
2018-02-04T08:32:00.182Z,5.10
2018-02-04T08:34:27.707Z,6.80
2018-02-04T08:36:56.020Z,5.60
2018-02-04T08:39:23.535Z,6.40
2018-02-04T08:41:51.103Z,6.23
2018-02-04T08:44:19.395Z,5.73
2018-02-04T08:46:47.678Z,5.20
2018-02-04T08:49:15.218Z,6.27
2018-02-04T08:51:43.516Z,6.30
2018-02-04T08:54:11.040Z,7.50
2018-02-04T08:56:38.604Z,6.20
2018-02-04T08:59:06.131Z,6.77
2018-02-04T09:01:33.687Z,8.10
2018-02-04T09:04:01.224Z,6.50
2018-02-04T09:06:28.743Z,9.23
2018-02-04T09:08:56.268Z,8.57
2018-02-04T09:11:23.784Z,8.67
2018-02-04T09:13:52.155Z,7.37
2018-02-04T09:16:19.635Z,10.33
2018-02-04T09:18:47.184Z,9.03
2018-02-04T09:21:15.474Z,9.63
2018-02-04T09:23:43.014Z,9.33
2018-02-04T09:26:11.300Z,10.73
2018-02-04T09:28:38.850Z,7.80
2018-02-04T09:31:07.126Z,9.20
2018-02-04T09:33:35.471Z,7.97
2018-02-04T09:36:02.997Z,11.33
2018-02-04T09:38:30.520Z,10.67
2018-02-04T09:40:58.020Z,10.10
2018-02-04T09:43:25.539Z,9.77
2018-02-04T09:45:53.831Z,10.83
2018-02-04T09:48:22.108Z,9.33
2018-02-04T09:50:50.421Z,10.33
2018-02-04T09:53:17.980Z,9.20
2018-02-04T09:55:45.535Z,11.00
2018-02-04T09:58:13.052Z,9.17
2018-02-04T10:00:40.615Z,10.15
2018-02-04T10:03:08.155Z,9.43
2018-02-04T10:05:35.685Z,8.00
2018-02-04T10:08:03.236Z,7.80
2018-02-04T10:10:30.783Z,7.83
2018-02-04T10:12:58.308Z,8.00
2018-02-04T10:15:25.844Z,6.83
2018-02-04T10:17:53.381Z,6.90
2018-02-04T10:20:20.911Z,6.20
2018-02-04T10:22:49.199Z,7.60
2018-02-04T10:25:17.552Z,7.67
2018-02-04T10:27:45.071Z,6.00
2018-02-04T10:30:12.617Z,8.00
2018-02-04T10:32:40.131Z,7.50
2018-02-04T10:35:08.456Z,7.40
2018-02-04T10:37:35.971Z,6.40
2018-02-04T10:40:04.277Z,6.57
2018-02-04T10:42:31.806Z,7.10
2018-02-04T10:44:59.338Z,5.90
2018-02-04T10:47:26.883Z,5.43
2018-02-04T10:49:54.410Z,6.30
2018-02-04T10:52:22.695Z,7.00
2018-02-04T10:54:50.277Z,7.17
2018-02-04T10:57:17.811Z,5.93
2018-02-04T10:59:46.078Z,6.93
2018-02-04T11:02:14.363Z,5.47
2018-02-04T11:04:42.635Z,5.80
2018-02-04T11:07:10.187Z,6.13
2018-02-04T11:09:38.471Z,6.20
2018-02-04T11:12:06.768Z,7.17
2018-02-04T11:14:34.346Z,6.23
2018-02-04T11:17:01.901Z,5.13
2018-02-04T11:19:29.404Z,5.50
2018-02-04T11:21:56.989Z,6.87
2018-02-04T11:24:24.492Z,5.60
2018-02-04T11:26:52.042Z,5.40
2018-02-04T11:29:19.574Z,7.60
2018-02-04T11:31:47.855Z,5.80
2018-02-04T11:34:16.148Z,5.30
2018-02-04T11:36:43.684Z,6.40
2018-02-04T11:39:11.971Z,6.20
2018-02-04T11:41:40.248Z,4.93
2018-02-04T11:44:08.551Z,4.93
2018-02-04T11:46:36.109Z,4.40
2018-02-04T11:49:04.428Z,4.57
2018-02-04T11:51:31.996Z,4.97
2018-02-04T11:53:59.534Z,4.57
2018-02-04T11:56:27.043Z,5.00
2018-02-04T11:58:55.352Z,5.53
2018-02-04T12:01:22.894Z,4.27
2018-02-04T12:03:51.181Z,5.80
2018-02-04T12:06:19.523Z,5.47
2018-02-04T12:08:47.023Z,4.27
2018-02-04T12:11:14.564Z,4.20
2018-02-04T12:13:42.071Z,4.27
2018-02-04T12:16:09.622Z,3.97
2018-02-04T12:18:37.168Z,4.87
2018-02-04T12:21:04.697Z,4.10
2018-02-04T12:23:32.219Z,4.10
2018-02-04T12:25:59.777Z,4.20
2018-02-04T12:28:28.015Z,3.73
2018-02-04T12:30:56.331Z,3.90
2018-02-04T12:33:24.681Z,4.00
2018-02-04T12:35:52.208Z,4.77
2018-02-04T12:38:19.772Z,4.30
2018-02-04T12:40:47.280Z,4.10
2018-02-04T12:43:14.798Z,3.83
2018-02-04T12:45:43.090Z,4.13
2018-02-04T12:48:11.391Z,5.63
2018-02-04T12:50:38.899Z,6.00
2018-02-04T12:53:06.426Z,5.20
2018-02-04T12:55:33.939Z,5.07
2018-02-04T12:58:02.240Z,5.30
2018-02-04T13:00:29.773Z,4.80
2018-02-04T13:02:58.093Z,4.90
2018-02-04T13:05:26.382Z,6.53
2018-02-04T13:07:53.939Z,3.93
2018-02-04T13:10:21.455Z,4.90
2018-02-04T13:12:49.771Z,3.30
2018-02-04T13:15:17.275Z,4.23
2018-02-04T13:17:44.823Z,3.60
2018-02-04T13:20:12.353Z,4.60
2018-02-04T13:22:39.878Z,3.87
2018-02-04T13:25:08.214Z,5.03
2018-02-04T13:27:35.733Z,4.73
2018-02-04T13:30:04.042Z,5.27
2018-02-04T13:32:31.558Z,5.03
2018-02-04T13:34:59.833Z,5.17
2018-02-04T13:37:28.120Z,4.67
2018-02-04T13:39:55.668Z,5.50
2018-02-04T13:42:23.987Z,4.47
2018-02-04T13:44:51.515Z,4.70
2018-02-04T13:47:19.795Z,4.17
2018-02-04T13:49:47.354Z,7.10
2018-02-04T13:52:15.641Z,4.10
2018-02-04T13:54:43.158Z,4.30
2018-02-04T13:57:10.716Z,3.60
2018-02-04T13:59:38.244Z,3.40
2018-02-04T14:02:05.756Z,3.93
2018-02-04T14:04:34.053Z,3.67
2018-02-04T14:07:01.604Z,4.60
2018-02-04T14:09:29.894Z,4.40
2018-02-04T14:11:57.498Z,3.63
2018-02-04T14:14:25.066Z,4.13
2018-02-04T14:16:52.593Z,4.20
2018-02-04T14:19:20.119Z,3.57
2018-02-04T14:21:48.421Z,4.60
2018-02-04T14:24:15.943Z,4.47
2018-02-04T14:26:43.475Z,5.43
2018-02-04T14:29:11.297Z,4.07
2018-02-04T14:31:39.591Z,5.33
2018-02-04T14:34:07.114Z,4.00
2018-02-04T14:36:35.466Z,4.70
2018-02-04T14:39:02.990Z,4.37
2018-02-04T14:41:30.563Z,4.50
2018-02-04T14:43:58.071Z,3.93
2018-02-04T14:46:25.594Z,4.07
2018-02-04T14:48:53.159Z,4.63
2018-02-04T14:51:20.707Z,4.53
2018-02-04T14:53:48.235Z,4.57
2018-02-04T14:56:15.767Z,4.13
2018-02-04T14:58:43.360Z,4.17
2018-02-04T15:01:10.892Z,4.03
2018-02-04T15:03:38.459Z,4.60
2018-02-04T15:06:06.751Z,4.83
2018-02-04T15:08:35.056Z,6.20
2018-02-04T15:11:02.582Z,5.57
2018-02-04T15:13:30.862Z,5.23
2018-02-04T15:15:59.142Z,8.20
2018-02-04T15:18:27.476Z,4.37
2018-02-04T15:20:54.979Z,4.47
2018-02-04T15:23:23.354Z,4.83
2018-02-04T15:25:51.629Z,5.67
2018-02-04T15:28:19.186Z,5.90
2018-02-04T15:30:47.464Z,6.67
2018-02-04T15:33:15.739Z,5.33
2018-02-04T15:35:44.027Z,5.77
2018-02-04T15:38:12.283Z,5.77
2018-02-04T15:40:39.803Z,7.00
2018-02-04T15:43:07.303Z,6.43
2018-02-04T15:45:34.835Z,6.87
2018-02-04T15:48:02.351Z,7.07
2018-02-04T15:50:29.888Z,6.17
2018-02-04T15:52:57.394Z,5.50
2018-02-04T15:55:24.933Z,4.57
2018-02-04T15:57:52.443Z,5.20
2018-02-04T16:00:19.954Z,5.43
2018-02-04T16:02:47.460Z,5.57
2018-02-04T16:05:14.979Z,5.20
2018-02-04T16:07:42.484Z,5.50
2018-02-04T16:10:09.999Z,5.23
2018-02-04T16:12:37.494Z,6.03
2018-02-04T16:15:05.011Z,7.73
2018-02-04T16:17:32.523Z,6.20
2018-02-04T16:20:00.070Z,6.70
2018-02-04T16:22:27.571Z,8.13
2018-02-04T16:24:55.871Z,7.80
2018-02-04T16:27:23.383Z,6.83
2018-02-04T16:29:50.889Z,8.40
2018-02-04T16:32:18.421Z,6.93
2018-02-04T16:34:45.919Z,7.20
2018-02-04T16:37:13.451Z,7.87
2018-02-04T16:39:41.714Z,7.40
2018-02-04T16:42:09.236Z,8.40
2018-02-04T16:44:36.731Z,8.63
2018-02-04T16:47:04.247Z,8.57
2018-02-04T16:49:31.747Z,8.50
2018-02-04T16:51:59.267Z,7.73
2018-02-04T16:54:26.768Z,9.67
2018-02-04T16:56:54.296Z,9.03
2018-02-04T16:59:21.812Z,10.07
2018-02-04T17:01:50.111Z,8.77
2018-02-04T17:04:17.619Z,8.87
2018-02-04T17:06:45.138Z,9.87
2018-02-04T17:09:12.671Z,12.07
2018-02-04T17:11:40.968Z,12.03
2018-02-04T17:14:08.497Z,11.80
2018-02-04T17:16:36.799Z,12.63
2018-02-04T17:19:04.311Z,12.10
2018-02-04T17:21:31.845Z,12.20
2018-02-04T17:23:59.372Z,11.63
2018-02-04T17:26:26.886Z,13.27
2018-02-04T17:28:54.412Z,11.97
2018-02-04T17:31:21.919Z,13.83
2018-02-04T17:33:49.447Z,11.77
2018-02-04T17:36:16.963Z,11.77
2018-02-04T17:38:45.259Z,13.10
2018-02-04T17:41:12.773Z,13.27
2018-02-04T17:43:40.389Z,13.50
2018-02-04T17:46:07.900Z,15.03
2018-02-04T17:48:35.442Z,13.77
2018-02-04T17:51:02.955Z,12.07
2018-02-04T17:53:30.504Z,13.40
2018-02-04T17:55:58.779Z,13.73
2018-02-04T17:58:27.071Z,12.93
2018-02-04T18:00:54.593Z,15.20
2018-02-04T18:03:22.103Z,13.27
2018-02-04T18:05:49.644Z,13.17
2018-02-04T18:08:17.181Z,14.30
2018-02-04T18:10:44.744Z,14.30
2018-02-04T18:13:13.113Z,13.77
2018-02-04T18:15:40.638Z,15.03
2018-02-04T18:18:08.157Z,17.00
2018-02-04T18:20:35.691Z,16.37
2018-02-04T18:23:03.196Z,18.40
2018-02-04T18:25:30.719Z,17.60
2018-02-04T18:27:58.231Z,15.13
2018-02-04T18:30:25.765Z,17.43
2018-02-04T18:32:54.047Z,15.63
2018-02-04T18:35:22.345Z,16.77
2018-02-04T18:37:49.877Z,18.10
2018-02-04T18:40:18.169Z,16.53
2018-02-04T18:42:46.440Z,19.10
2018-02-04T18:45:14.756Z,18.77
2018-02-04T18:47:42.271Z,18.83
2018-02-04T18:50:10.566Z,19.27
2018-02-04T18:52:38.857Z,20.30
2018-02-04T18:55:06.378Z,23.53
2018-02-04T18:57:33.902Z,23.63
2018-02-04T19:00:01.420Z,24.03
2018-02-04T19:02:29.706Z,24.13
2018-02-04T19:04:57.215Z,25.37
2018-02-04T19:07:24.741Z,23.10
2018-02-04T19:09:52.253Z,25.50
2018-02-04T19:12:19.775Z,23.90
2018-02-04T19:14:47.333Z,25.77
2018-02-04T19:17:14.841Z,25.33
2018-02-04T19:19:43.129Z,26.30
2018-02-04T19:22:11.420Z,31.70
2018-02-04T19:24:38.934Z,27.63
2018-02-04T19:27:06.458Z,29.63
2018-02-04T19:29:33.959Z,26.87
2018-02-04T19:32:01.483Z,27.53
2018-02-04T19:34:29.005Z,28.17
2018-02-04T19:36:57.299Z,29.73
2018-02-04T19:39:24.816Z,26.87
2018-02-04T19:41:52.359Z,26.23
2018-02-04T19:44:19.863Z,29.37
2018-02-04T19:46:48.140Z,30.40
2018-02-04T19:49:16.422Z,31.67
2018-02-04T19:51:44.695Z,28.83
2018-02-04T19:54:13.011Z,29.93
2018-02-04T19:56:40.544Z,30.63
2018-02-04T19:59:08.068Z,28.87
2018-02-04T20:01:35.588Z,30.60
2018-02-04T20:04:03.169Z,31.10
2018-02-04T20:06:30.728Z,31.03
2018-02-04T20:08:58.295Z,30.27
2018-02-04T20:11:26.594Z,29.90
2018-02-04T20:13:54.115Z,27.53
2018-02-04T20:16:21.636Z,28.63
2018-02-04T20:18:49.927Z,28.13
2018-02-04T20:21:17.453Z,27.37
2018-02-04T20:23:45.749Z,28.13
2018-02-04T20:26:14.023Z,30.03
2018-02-04T20:28:42.334Z,28.73
2018-02-04T20:31:09.865Z,27.73
2018-02-04T20:33:49.087Z,28.73
2018-02-04T20:36:17.363Z,29.43
2018-02-04T20:38:45.676Z,28.47
2018-02-04T20:41:13.203Z,29.20
2018-02-04T20:43:41.475Z,29.57
2018-02-04T20:46:08.994Z,29.17
2018-02-04T20:48:36.511Z,27.60
2018-02-04T20:51:04.845Z,27.70
2018-02-04T20:53:32.331Z,29.50
2018-02-04T20:55:59.860Z,28.80
2018-02-04T20:58:27.367Z,26.07
2018-02-04T21:00:55.660Z,27.57
2018-02-04T21:03:23.167Z,26.43
2018-02-04T21:05:50.701Z,26.07
2018-02-04T21:08:18.232Z,26.10
2018-02-04T21:10:46.558Z,24.57
2018-02-04T21:13:14.039Z,26.87
2018-02-04T21:15:41.568Z,25.57
2018-02-04T21:18:09.085Z,28.00
2018-02-04T21:20:37.366Z,24.57
2018-02-04T21:23:05.649Z,26.93
2018-02-04T21:25:33.194Z,27.20
2018-02-04T21:28:01.479Z,27.77
2018-02-04T21:30:29.774Z,24.97
2018-02-04T21:32:57.303Z,24.97
2018-02-04T21:35:25.581Z,24.93
2018-02-04T21:37:53.881Z,24.53
2018-02-04T21:40:21.392Z,26.27
2018-02-04T21:42:48.915Z,27.20
2018-02-04T21:45:16.423Z,25.90
2018-02-04T21:47:43.946Z,25.60
2018-02-04T21:50:11.457Z,28.00
2018-02-04T21:52:39.747Z,26.27
2018-02-04T21:55:08.076Z,23.60
2018-02-04T21:57:35.587Z,24.30
2018-02-04T22:00:03.859Z,24.13
2018-02-04T22:02:32.151Z,27.10
2018-02-04T22:04:59.655Z,26.53
2018-02-04T22:07:27.174Z,27.63
2018-02-04T22:09:54.691Z,24.67
2018-02-04T22:12:22.229Z,25.50
2018-02-04T22:14:49.753Z,26.87
2018-02-04T22:17:17.262Z,26.20
2018-02-04T22:19:44.788Z,27.10
2018-02-04T22:22:12.299Z,25.80
2018-02-04T22:24:39.816Z,26.00
2018-02-04T22:27:07.326Z,25.83
2018-02-04T22:29:35.623Z,29.47
2018-02-04T22:32:03.128Z,26.10
2018-02-04T22:34:30.651Z,26.17
2018-02-04T22:36:58.165Z,27.90
2018-02-04T22:39:25.690Z,25.73
2018-02-04T22:41:53.211Z,27.70
2018-02-04T22:44:21.502Z,25.97
2018-02-04T22:46:49.019Z,28.20
2018-02-04T22:49:16.539Z,28.63
2018-02-04T22:51:44.043Z,27.93
2018-02-04T22:54:11.567Z,27.43
2018-02-04T22:56:39.088Z,25.90
2018-02-04T22:59:07.379Z,29.13
2018-02-04T23:01:34.887Z,27.93
2018-02-04T23:04:02.415Z,26.80
2018-02-04T23:06:29.919Z,27.67
2018-02-04T23:08:57.467Z,26.20
2018-02-04T23:11:24.991Z,29.00
2018-02-04T23:13:52.505Z,27.03
2018-02-04T23:16:20.084Z,27.40
2018-02-04T23:18:48.372Z,28.20
2018-02-04T23:21:15.899Z,27.87
2018-02-04T23:23:43.411Z,30.03
2018-02-04T23:26:10.946Z,29.07
2018-02-04T23:28:39.214Z,28.63
2018-02-04T23:31:07.502Z,30.93
2018-02-04T23:33:35.784Z,32.73
2018-02-04T23:36:03.308Z,29.57
2018-02-04T23:38:30.823Z,29.93
2018-02-04T23:40:58.347Z,31.50
2018-02-04T23:43:26.621Z,28.97
2018-02-04T23:45:54.920Z,30.20
2018-02-04T23:48:22.441Z,29.27
2018-02-04T23:50:49.978Z,30.93
2018-02-04T23:53:17.479Z,29.93
2018-02-04T23:55:45.754Z,30.47
2018-02-04T23:58:14.046Z,32.20
